Airfield :
LOGIN :

Register | Disclaimer

   EN    FR    IT 

 










Legend :    VFR   Marginal VFR   IFR   Intensive IFR   Very Intensive IFR
Visi :
Ceiling :
>= 8 km
>= 3000ft
5 to 8 km
1000 to 3000 ft
1500m to 5 km
500 to 1000 ft
800 to 1500m
200 to 500 ft
< 800m
< 200 ft
Symbols :   Thunderstorms  Fog  Heavy snow  Heavy precipitations  Wind > 20 kt
SIGMETs :     Misc.  Thunderstorms  Icing  Turbulence  Mountain Waves  Volcanic Ashes






- Airport Elevation : 505 ft
- IATA code : SXB


LFST - Strasbourg

CURRENT METAR :
  • 271700Z AUTO 28028G43KT 250V310 9999 -RA FEW013 BKN024 OVC030 07/04 Q0992 NOSIG

EXPIRED METARs :
  • 271630Z AUTO 22016G27KT 180V250 9999 -RA FEW021/// SCT026/// BKN033/// ///TCU 08/06 Q0990 TEMPO 27030G50KT BECMG FEW010 SCT025
  • 271600Z AUTO 17018KT 9999 OVC026 07/05 Q0989 TEMPO 27030G50KT
  • 271530Z AUTO 18015KT 9999 OVC029/// ///TCU 06/04 Q0990 TEMPO 27030G50KT BECMG FEW010 SCT025
  • 271500Z AUTO 18016KT 9999 SCT007 BKN018 OVC029 04/04 Q0991 TEMPO 27030G50KT
  • 271430Z AUTO 19012KT 9999 -RADZ OVC006/// ///TCU 03/03 Q0992 TEMPO 27030G50KT BECMG FEW010 SCT025

TAF TAF LFST
Valid from the 27 at 12:00 until the 28 at 12:00 UTC


271100Z 2712/2812 20010KT 9999 FEW010 SCT025
TEMPO 2712/2715 20015G30KT 3000 RASN OVC005
BECMG 2715/2716 27010KT
TEMPO 2716/2719 27030G50KT
TEMPO 2719/2724 29020G40KT
BECMG 2803/2806 21005KT



MET'MAP, your aeronautical weather chart ! - Copyright ORBIFLY December 2007 - Disclaimer

ORBIFLY MET'MAP TEAM :

Programming & Development : Alexandra Zaïnal
Concept & original design : Baudouin d'Aumeries
Assistance for programming : Marc-Olivier Méhu
Technical & hardware support : Manuel Goepfert

Contact : metmap@orbifly.com




SOURCES & CREDITS :

   NOAA